Time;durP1;ratioP1;P1;durP2;ratioP2;P2;SDS_P1;SDS_P2;PMS_P1;PMS_P2;Temp;Humidity;BMP_temperature;BMP_pressure;BME280_temperature;BME280_humidity;BME280_pressure;Samples;Min_cycle;Max_cycle;Signal;HPM_P1;HPM_P2
2022/07/02 00:01:00;;;;;;;9.75;7.97;;;;;;;15.25;99.80;101426.81;5008648;28;20058;-59
2022/07/02 00:03:36;;;;;;;13.73;9.32;;;;;;;15.23;99.51;101426.06;5002921;28;20058;-57
2022/07/02 00:06:05;;;;;;;13.18;9.43;;;;;;;15.18;99.76;101429.03;4996496;28;20502;-57
2022/07/02 00:08:33;;;;;;;11.45;9.43;;;;;;;15.17;99.95;101434.41;5008577;28;20060;-57
2022/07/02 00:11:03;;;;;;;15.50;10.32;;;;;;;15.15;100.00;101439.84;5007493;28;20054;-59
2022/07/02 00:13:30;;;;;;;12.65;9.70;;;;;;;15.16;99.84;101438.03;5008509;28;20733;-58
2022/07/02 00:15:59;;;;;;;11.75;9.43;;;;;;;15.14;99.52;101446.09;5006423;28;20050;-56
2022/07/02 00:18:26;;;;;;;10.63;9.38;;;;;;;15.15;99.45;101444.28;4991462;28;20045;-58
2022/07/02 00:20:53;;;;;;;10.55;9.27;;;;;;;15.15;99.67;101446.94;5009852;28;20077;-58
2022/07/02 00:23:20;;;;;;;12.57;9.43;;;;;;;15.13;99.55;101441.75;5006734;28;20561;-60
2022/07/02 00:25:54;;;;;;;12.57;8.13;;;;;;;15.13;99.37;101446.16;5001131;28;20053;-58
2022/07/02 00:28:23;;;;;;;11.75;9.55;;;;;;;15.12;99.34;101445.31;5011782;28;20177;-58
2022/07/02 00:30:51;;;;;;;13.32;9.25;;;;;;;15.10;99.32;101444.59;4994262;28;20062;-60
2022/07/02 00:33:18;;;;;;;12.85;8.55;;;;;;;15.08;99.48;101446.47;5007661;28;20382;-59
2022/07/02 00:35:46;;;;;;;9.73;8.38;;;;;;;15.08;99.38;101445.63;5011613;28;20526;-58
2022/07/02 00:38:13;;;;;;;11.48;9.00;;;;;;;15.06;99.67;101450.19;5017792;28;20053;-61
2022/07/02 00:40:41;;;;;;;14.88;9.43;;;;;;;15.04;99.63;101457.38;5013396;28;20057;-57
2022/07/02 00:43:09;;;;;;;10.43;8.95;;;;;;;15.04;99.45;101452.06;5013754;28;20486;-60
2022/07/02 00:45:37;;;;;;;10.23;8.18;;;;;;;15.03;99.42;101447.72;5005873;28;20061;-57
2022/07/02 00:48:05;;;;;;;10.27;8.68;;;;;;;15.00;99.28;101448.78;4999337;28;20054;-64
2022/07/02 00:50:32;;;;;;;9.45;7.75;;;;;;;14.98;99.35;101450.66;5014742;28;20058;-58
2022/07/02 00:52:59;;;;;;;9.75;7.88;;;;;;;14.97;99.41;101456.94;5019044;28;20054;-59
2022/07/02 00:55:26;;;;;;;11.98;9.23;;;;;;;14.96;99.43;101454.38;4999057;28;20054;-58
2022/07/02 00:57:54;;;;;;;12.43;8.48;;;;;;;14.93;99.52;101448.31;5012631;28;20076;-60
2022/07/02 01:00:21;;;;;;;13.82;9.73;;;;;;;14.93;99.59;101460.72;5015012;28;20062;-60
2022/07/02 01:02:49;;;;;;;9.90;8.90;;;;;;;14.90;99.56;101458.25;5000796;28;20413;-59
2022/07/02 01:05:19;;;;;;;15.40;9.85;;;;;;;14.88;99.97;101457.53;4991481;28;20058;-60
2022/07/02 01:10:16;;;;;;;12.43;8.70;;;;;;;14.87;99.71;101450.53;5014907;28;20076;-59
2022/07/02 01:10:48;;;;;;;12.45;9.18;;;;;;;14.85;100.00;101444.44;5013513;28;20528;-56
2022/07/02 01:13:17;;;;;;;12.93;9.43;;;;;;;14.84;100.00;101446.25;4997751;28;20087;-57
2022/07/02 01:15:44;;;;;;;14.57;9.07;;;;;;;14.83;100.00;101443.72;5007196;28;20057;-59
2022/07/02 01:18:17;;;;;;;11.32;8.90;;;;;;;14.82;99.83;101449.97;5016612;28;20072;-56
2022/07/02 01:20:45;;;;;;;10.27;9.27;;;;;;;14.80;100.00;101450.03;5010077;28;20064;-58
2022/07/02 01:23:13;;;;;;;13.18;9.73;;;;;;;14.79;99.82;101450.16;5008018;28;20046;-55
2022/07/02 01:25:40;;;;;;;10.65;9.52;;;;;;;14.78;100.00;101456.41;5020668;28;20049;-59
2022/07/02 01:28:07;;;;;;;12.18;9.43;;;;;;;14.77;100.00;101463.50;5018957;28;20310;-60
2022/07/02 01:30:34;;;;;;;12.20;8.60;;;;;;;14.76;99.96;101448.53;5010037;28;20058;-58
2022/07/02 01:33:01;;;;;;;12.95;9.30;;;;;;;14.76;100.00;101453.84;4996862;28;20384;-57
2022/07/02 01:35:28;;;;;;;10.90;9.80;;;;;;;14.76;99.89;101453.00;5027383;28;20045;-57
2022/07/02 01:37:55;;;;;;;12.82;10.25;;;;;;;14.74;100.00;101446.94;5012757;28;20114;-59
2022/07/02 01:40:22;;;;;;;10.95;9.85;;;;;;;14.73;100.00;101454.06;5011626;28;20050;-57
2022/07/02 01:42:49;;;;;;;12.60;9.65;;;;;;;14.74;100.00;101446.94;5019073;28;20048;-60
2022/07/02 01:45:17;;;;;;;12.63;11.27;;;;;;;14.72;100.00;101446.19;5017082;28;20057;-62
2022/07/02 01:47:44;;;;;;;12.18;10.77;;;;;;;14.71;100.00;101455.94;5017313;28;20057;-59
2022/07/02 01:50:11;;;;;;;18.27;11.68;;;;;;;14.71;100.00;101461.22;5014454;28;20064;-55
2022/07/02 01:52:38;;;;;;;12.10;9.80;;;;;;;14.71;100.00;101463.88;4992060;28;20057;-59
2022/07/02 01:55:05;;;;;;;11.88;10.70;;;;;;;14.72;100.00;101462.06;5015670;28;20497;-57
2022/07/02 01:57:35;;;;;;;15.15;11.10;;;;;;;14.72;100.00;101462.94;5015965;28;20409;-55
2022/07/02 02:00:04;;;;;;;11.25;9.30;;;;;;;14.71;100.00;101468.34;5016378;28;20142;-61
2022/07/02 02:02:32;;;;;;;13.00;11.65;;;;;;;14.67;100.00;101457.91;5012560;28;20050;-58
2022/07/02 02:04:59;;;;;;;15.20;10.85;;;;;;;14.66;100.00;101460.66;5015290;28;20057;-58
2022/07/02 02:07:27;;;;;;;12.02;10.23;;;;;;;14.65;100.00;101459.81;5010846;28;20537;-60
2022/07/02 02:09:54;;;;;;;13.60;11.88;;;;;;;14.64;100.00;101467.88;5013922;28;20056;-58
2022/07/02 02:12:22;;;;;;;12.70;11.07;;;;;;;14.64;100.00;101460.78;5010589;28;20133;-59
2022/07/02 02:14:49;;;;;;;14.05;10.50;;;;;;;14.64;100.00;101471.38;5013881;28;20049;-60
2022/07/02 02:17:16;;;;;;;15.27;11.90;;;;;;;14.65;100.00;101473.06;5016033;28;20054;-54
2022/07/02 02:19:43;;;;;;;17.05;11.25;;;;;;;14.63;100.00;101472.34;5010501;28;20065;-60
2022/07/02 02:22:10;;;;;;;17.52;12.00;;;;;;;14.62;100.00;101472.41;5012119;28;20099;-57
2022/07/02 02:24:38;;;;;;;13.52;12.13;;;;;;;14.61;100.00;101476.00;5011583;28;20457;-56
2022/07/02 02:27:05;;;;;;;12.13;10.93;;;;;;;14.61;100.00;101476.88;5005417;28;20054;-57
2022/07/02 02:29:32;;;;;;;12.50;10.02;;;;;;;14.60;100.00;101480.47;5015581;28;20046;-61
2022/07/02 02:32:00;;;;;;;11.85;10.75;;;;;;;14.59;100.00;101481.41;5010401;28;20068;-59
2022/07/02 02:34:27;;;;;;;16.00;10.93;;;;;;;14.57;100.00;101485.94;5005126;28;20077;-58
2022/07/02 02:36:54;;;;;;;12.90;11.23;;;;;;;14.56;100.00;101489.53;4991779;28;20450;-57
2022/07/02 02:39:21;;;;;;;13.38;12.07;;;;;;;14.56;100.00;101494.00;5009957;28;20061;-57
2022/07/02 02:41:48;;;;;;;13.60;11.35;;;;;;;14.53;100.00;101488.88;5005236;28;20054;-55
2022/07/02 02:44:16;;;;;;;12.27;11.05;;;;;;;14.53;100.00;101489.72;5025692;28;20053;-58
2022/07/02 02:46:43;;;;;;;14.13;12.73;;;;;;;14.51;100.00;101491.63;5004303;28;20104;-62
2022/07/02 02:49:10;;;;;;;16.73;13.75;;;;;;;14.51;100.00;101498.75;5010217;28;20511;-58
2022/07/02 02:51:37;;;;;;;13.20;11.52;;;;;;;14.52;100.00;101492.47;5016532;28;20433;-57
2022/07/02 02:54:04;;;;;;;14.18;11.02;;;;;;;14.52;100.00;101493.34;5017412;28;20503;-63
2022/07/02 02:56:31;;;;;;;15.38;12.02;;;;;;;14.51;100.00;101496.94;5024795;28;20062;-60
2022/07/02 02:58:59;;;;;;;12.85;11.13;;;;;;;14.51;100.00;101494.28;5025919;28;20053;-60
2022/07/02 03:01:27;;;;;;;14.30;10.98;;;;;;;14.50;100.00;101497.00;5028389;28;20394;-58
2022/07/02 03:03:54;;;;;;;15.65;12.48;;;;;;;14.49;100.00;101503.25;5002886;28;20060;-58
2022/07/02 03:06:21;;;;;;;13.07;11.68;;;;;;;14.48;100.00;101506.81;5015258;28;20058;-56
2022/07/02 03:08:48;;;;;;;13.57;11.30;;;;;;;14.49;100.00;101509.41;5021020;28;20068;-56
2022/07/02 03:11:19;;;;;;;15.98;11.30;;;;;;;14.50;100.00;101502.31;5011889;28;20064;-59
2022/07/02 03:13:46;;;;;;;13.90;11.60;;;;;;;14.52;100.00;101509.22;5011922;28;20061;-56
2022/07/02 03:16:13;;;;;;;13.43;12.00;;;;;;;14.54;100.00;101506.47;5019292;28;20049;-58
2022/07/02 03:18:40;;;;;;;12.32;11.10;;;;;;;14.56;100.00;101510.75;5015078;28;20053;-59
2022/07/02 03:21:07;;;;;;;11.68;10.57;;;;;;;14.57;100.00;101517.75;5009326;28;20455;-56
2022/07/02 03:23:34;;;;;;;13.38;11.25;;;;;;;14.59;100.00;101528.25;5011965;28;20053;-61
2022/07/02 03:26:01;;;;;;;12.38;11.07;;;;;;;14.60;100.00;101524.66;5015140;28;20058;-58
2022/07/02 03:28:29;;;;;;;14.93;11.70;;;;;;;14.61;100.00;101524.56;5009573;28;20503;-57
2022/07/02 03:30:56;;;;;;;15.55;11.52;;;;;;;14.62;100.00;101530.72;5000498;28;20074;-58
2022/07/02 03:33:25;;;;;;;13.82;10.90;;;;;;;14.63;100.00;101537.72;5009223;28;20049;-58
2022/07/02 03:35:57;;;;;;;12.80;11.55;;;;;;;14.62;100.00;101530.72;5011420;28;20041;-57
2022/07/02 03:38:24;;;;;;;15.20;12.48;;;;;;;14.63;100.00;101529.75;5011822;28;20140;-57
2022/07/02 03:40:51;;;;;;;13.20;11.88;;;;;;;14.65;100.00;101536.69;5005353;28;20062;-61
2022/07/02 03:43:18;;;;;;;14.00;11.50;;;;;;;14.68;100.00;101536.50;5009825;28;20057;-59
2022/07/02 03:45:45;;;;;;;12.20;11.00;;;;;;;14.69;100.00;101540.84;5014958;28;20068;-60
2022/07/02 03:48:12;;;;;;;14.90;11.93;;;;;;;14.70;99.83;101544.34;5009036;28;20412;-59
2022/07/02 03:50:42;;;;;;;14.70;12.77;;;;;;;14.68;100.00;101541.81;5017959;28;20574;-57
2022/07/02 03:53:09;;;;;;;12.25;10.85;;;;;;;14.71;100.00;101545.19;5006115;28;20060;-55
2022/07/02 03:55:37;;;;;;;14.27;11.95;;;;;;;14.74;100.00;101547.66;5015398;28;20382;-58
2022/07/02 03:58:04;;;;;;;14.93;12.68;;;;;;;14.76;100.00;101545.75;5015486;28;20058;-61
2022/07/02 04:00:31;;;;;;;14.45;12.88;;;;;;;14.78;99.82;101554.50;5016361;28;20057;-59
2022/07/02 04:02:58;;;;;;;16.13;12.27;;;;;;;14.80;99.56;101555.22;5000726;28;20154;-59
2022/07/02 04:05:25;;;;;;;13.00;11.70;;;;;;;14.82;99.35;101556.00;5017354;28;20042;-57
2022/07/02 04:07:52;;;;;;;13.80;12.07;;;;;;;14.83;99.09;101563.00;5014567;28;20054;-59
2022/07/02 04:10:20;;;;;;;14.38;11.80;;;;;;;14.84;98.92;101568.19;5016006;28;20053;-58
2022/07/02 04:12:47;;;;;;;14.88;13.15;;;;;;;14.88;98.87;101563.56;5016869;28;20157;-58
2022/07/02 04:15:15;;;;;;;14.57;12.32;;;;;;;14.88;98.88;101566.22;5008420;28;20064;-58
2022/07/02 04:17:42;;;;;;;13.40;11.02;;;;;;;14.91;98.68;101561.59;5007430;28;20058;-62
2022/07/02 04:20:09;;;;;;;12.93;11.68;;;;;;;14.95;98.51;101572.84;5011858;28;20050;-60
2022/07/02 04:22:36;;;;;;;15.05;13.25;;;;;;;14.94;98.42;101569.31;4993521;28;20045;-56
2022/07/02 04:25:04;;;;;;;13.27;11.80;;;;;;;14.96;98.33;101574.56;5000422;28;20696;-59
2022/07/02 04:27:31;;;;;;;12.60;11.32;;;;;;;14.98;98.35;101566.50;5019136;28;20058;-59
2022/07/02 04:29:59;;;;;;;14.05;12.60;;;;;;;15.00;98.39;101568.13;5014104;28;20054;-60
2022/07/02 04:32:29;;;;;;;16.90;11.77;;;;;;;15.03;98.36;101573.22;5017656;28;20060;-60
2022/07/02 04:34:56;;;;;;;12.65;11.32;;;;;;;15.10;98.26;101573.69;5000382;28;20220;-56
2022/07/02 04:37:23;;;;;;;17.27;11.68;;;;;;;15.13;98.06;101573.47;5010400;28;20057;-61
2022/07/02 04:39:50;;;;;;;13.02;11.75;;;;;;;15.16;98.04;101576.78;4988775;28;20611;-60
2022/07/02 04:42:17;;;;;;;15.45;11.45;;;;;;;15.19;97.57;101576.59;5010907;28;20406;-56
2022/07/02 04:44:45;;;;;;;14.75;12.02;;;;;;;15.19;97.30;101571.31;5009847;28;20656;-60
2022/07/02 04:47:12;;;;;;;13.82;12.38;;;;;;;15.28;97.04;101579.63;5009331;28;20413;-57
2022/07/02 04:49:40;;;;;;;18.65;12.38;;;;;;;15.33;96.75;101578.38;5012492;28;20053;-58
2022/07/02 04:52:07;;;;;;;15.57;11.85;;;;;;;15.35;96.57;101578.28;5011754;28;20545;-58
2022/07/02 04:54:34;;;;;;;12.13;10.93;;;;;;;15.40;96.22;101576.19;5011860;28;20507;-57
2022/07/02 04:57:01;;;;;;;14.32;11.15;;;;;;;15.45;96.05;101577.59;4998242;28;20054;-57
2022/07/02 04:59:28;;;;;;;12.18;10.98;;;;;;;15.52;95.77;101578.06;5006235;28;20056;-59
2022/07/02 05:01:55;;;;;;;15.55;10.60;;;;;;;15.58;95.45;101574.13;5014255;28;20368;-58
2022/07/02 05:04:23;;;;;;;12.43;11.23;;;;;;;15.62;94.62;101578.31;5003177;28;20054;-56
2022/07/02 05:06:50;;;;;;;13.45;11.20;;;;;;;15.62;94.27;101580.97;4990823;28;20081;-57
2022/07/02 05:09:18;;;;;;;13.10;11.73;;;;;;;15.63;93.83;101585.34;5013330;28;20057;-57
2022/07/02 05:11:45;;;;;;;12.88;11.55;;;;;;;15.70;94.10;101597.28;5018300;28;20060;-58
2022/07/02 05:14:12;;;;;;;14.90;11.63;;;;;;;15.75;93.48;101595.16;5016928;28;20129;-60
2022/07/02 05:16:39;;;;;;;10.93;9.27;;;;;;;15.87;93.66;101598.84;5019240;28;20145;-56
2022/07/02 05:19:07;;;;;;;13.82;10.65;;;;;;;16.00;93.35;101594.44;5003213;28;20379;-57
2022/07/02 05:21:34;;;;;;;16.35;11.27;;;;;;;16.04;91.55;101590.63;5061345;22;20084;-58
2022/07/02 05:24:01;;;;;;;13.15;9.63;;;;;;;16.10;91.75;101592.84;5014677;28;20061;-58
2022/07/02 05:26:28;;;;;;;13.00;11.02;;;;;;;16.17;90.31;101595.97;5018711;28;20049;-60
2022/07/02 05:28:56;;;;;;;15.75;11.20;;;;;;;16.16;90.43;101611.03;5019729;28;20077;-61
2022/07/02 05:31:23;;;;;;;13.73;10.77;;;;;;;16.23;89.96;101605.31;5019770;28;20056;-59
2022/07/02 05:33:50;;;;;;;10.88;8.85;;;;;;;16.30;90.20;101596.84;5015974;28;20061;-60
2022/07/02 05:36:17;;;;;;;10.90;9.55;;;;;;;16.44;89.68;101595.91;5013095;28;20058;-61
2022/07/02 05:38:44;;;;;;;13.00;9.45;;;;;;;16.50;89.04;101600.78;5024120;28;20150;-61
2022/07/02 05:41:11;;;;;;;11.30;9.10;;;;;;;16.57;88.14;101609.19;5014314;28;20054;-58
2022/07/02 05:43:38;;;;;;;12.25;9.00;;;;;;;16.63;87.90;101612.28;5030095;28;20079;-60
2022/07/02 05:46:05;;;;;;;10.98;9.73;;;;;;;16.65;86.16;101609.53;5010708;28;20057;-58
2022/07/02 05:48:34;;;;;;;10.15;9.13;;;;;;;16.77;86.13;101606.06;5009309;28;20144;-57
2022/07/02 05:51:02;;;;;;;13.57;9.35;;;;;;;16.86;85.79;101616.06;5015375;28;20061;-60
2022/07/02 05:53:29;;;;;;;10.40;7.50;;;;;;;16.95;85.74;101607.44;5025480;28;20045;-60
2022/07/02 05:55:56;;;;;;;10.55;9.00;;;;;;;17.01;84.52;101611.47;5012971;28;20049;-60
2022/07/02 05:58:23;;;;;;;8.82;7.57;;;;;;;17.07;84.86;101612.84;5011105;28;20061;-59
2022/07/02 06:00:50;;;;;;;9.30;7.95;;;;;;;17.22;84.78;101619.75;5000618;28;20058;-60
2022/07/02 06:03:18;;;;;;;9.30;8.30;;;;;;;17.32;83.83;101618.13;5022906;28;20085;-60
2022/07/02 06:08:31;;;;;;;13.20;8.55;;;;;;;17.26;80.58;101625.69;5013250;28;20054;-59
2022/07/02 06:10:58;;;;;;;11.77;8.18;;;;;;;17.28;80.23;101619.28;5020538;28;20062;-61
2022/07/02 06:13:25;;;;;;;10.57;8.30;;;;;;;17.39;79.99;101622.06;4996712;28;20355;-62
2022/07/02 06:15:52;;;;;;;8.13;7.25;;;;;;;17.53;79.06;101629.03;5015446;28;20550;-59
2022/07/02 06:18:19;;;;;;;9.90;8.05;;;;;;;17.63;79.07;101637.22;5012791;28;20068;-60
2022/07/02 06:20:47;;;;;;;10.05;7.05;;;;;;;17.74;79.05;101636.44;5012361;28;20069;-60
2022/07/02 06:23:16;;;;;;;9.60;7.15;;;;;;;17.80;77.88;101636.03;5008039;28;20058;-61
2022/07/02 06:25:43;;;;;;;7.65;6.85;;;;;;;17.92;77.18;101641.31;5019536;28;20507;-57
2022/07/02 06:28:10;;;;;;;7.05;6.32;;;;;;;18.05;77.10;101643.88;5013179;28;20077;-59
2022/07/02 06:30:37;;;;;;;10.07;7.25;;;;;;;18.16;74.87;101645.78;5020560;28;20045;-58
2022/07/02 06:33:04;;;;;;;8.55;6.80;;;;;;;18.15;74.90;101647.59;5021946;28;20050;-60
2022/07/02 06:35:31;;;;;;;11.20;6.38;;;;;;;18.36;74.98;101646.94;5019383;28;20137;-59
2022/07/02 06:37:58;;;;;;;8.65;6.15;;;;;;;18.52;74.71;101660.81;5014695;28;20108;-59
2022/07/02 06:40:25;;;;;;;7.22;5.63;;;;;;;18.63;73.53;101650.16;5013775;28;20042;-58
2022/07/02 06:42:53;;;;;;;7.53;6.22;;;;;;;18.75;73.06;101659.09;5021265;28;20547;-59
2022/07/02 06:45:21;;;;;;;11.77;7.28;;;;;;;18.73;69.49;101661.00;5001071;28;20080;-59
2022/07/02 06:47:48;;;;;;;7.68;6.40;;;;;;;18.67;70.50;101654.28;5015714;28;20061;-59
2022/07/02 06:50:18;;;;;;;7.72;6.15;;;;;;;18.73;70.45;101663.66;5018331;28;20060;-57
2022/07/02 06:52:45;;;;;;;8.13;6.45;;;;;;;18.83;69.82;101662.00;5011991;28;20061;-60
2022/07/02 06:55:13;;;;;;;6.03;5.00;;;;;;;18.92;69.77;101660.47;5010077;28;20046;-58
2022/07/02 06:57:40;;;;;;;6.57;5.38;;;;;;;19.13;69.48;101666.75;5018124;28;20057;-59
2022/07/02 07:00:07;;;;;;;7.05;5.07;;;;;;;18.98;66.19;101663.47;5001753;28;20518;-56
2022/07/02 07:02:34;;;;;;;10.85;5.43;;;;;;;19.04;66.36;101666.63;5019038;28;20060;-59
2022/07/02 07:05:02;;;;;;;9.02;6.15;;;;;;;19.09;67.27;101660.00;5012903;28;20072;-59
2022/07/02 07:07:30;;;;;;;9.45;5.72;;;;;;;19.16;65.73;101671.88;5016955;28;20061;-59
2022/07/02 07:09:57;;;;;;;7.28;4.95;;;;;;;19.13;66.26;101666.75;5009820;28;20049;-59
2022/07/02 07:12:25;;;;;;;12.00;5.65;;;;;;;19.27;64.60;101672.84;5002853;28;20505;-58
2022/07/02 07:14:52;;;;;;;8.20;5.55;;;;;;;19.32;65.05;101665.31;5014510;28;20362;-57
2022/07/02 07:17:19;;;;;;;9.00;4.63;;;;;;;19.49;65.26;101671.00;5016524;28;20060;-59
2022/07/02 07:19:46;;;;;;;5.18;4.68;;;;;;;19.62;64.85;101678.91;5014348;28;20490;-60
2022/07/02 07:22:13;;;;;;;7.05;4.97;;;;;;;19.72;64.23;101679.03;5017230;28;20071;-60
2022/07/02 07:24:40;;;;;;;6.00;4.95;;;;;;;19.62;63.29;101676.25;5017586;28;20058;-59
2022/07/02 07:27:08;;;;;;;7.25;4.68;;;;;;;19.64;63.27;101671.66;5000527;28;20129;-60
2022/07/02 07:29:35;;;;;;;8.38;4.63;;;;;;;19.85;63.20;101676.22;5010491;28;20049;-60
2022/07/02 07:32:03;;;;;;;5.07;3.58;;;;;;;19.92;59.77;101680.09;5020078;28;20057;-59
2022/07/02 07:34:30;;;;;;;5.68;3.10;;;;;;;20.03;59.38;101681.88;5016454;28;20061;-59
2022/07/02 07:36:58;;;;;;;4.28;3.08;;;;;;;20.18;58.42;101688.66;5014107;28;20061;-60
2022/07/02 07:39:25;;;;;;;6.25;3.40;;;;;;;20.19;58.40;101693.03;5017876;28;20068;-59
2022/07/02 07:41:52;;;;;;;4.05;3.47;;;;;;;20.12;56.72;101694.47;5011954;28;20062;-59
2022/07/02 07:44:20;;;;;;;9.88;3.60;;;;;;;20.04;57.51;101692.47;5030714;28;20480;-59
2022/07/02 07:46:47;;;;;;;6.32;2.95;;;;;;;20.13;57.72;101694.38;5008798;28;20051;-59
2022/07/02 07:49:15;;;;;;;5.90;3.10;;;;;;;20.31;57.00;101691.13;5017181;28;20061;-58
2022/07/02 07:51:42;;;;;;;5.72;3.25;;;;;;;20.42;56.40;101693.78;5014583;28;20061;-59
2022/07/02 07:54:10;;;;;;;6.22;2.92;;;;;;;20.38;52.64;101700.34;5012604;28;20518;-59
2022/07/02 07:56:37;;;;;;;4.40;1.98;;;;;;;20.50;52.21;101696.69;5013066;28;20064;-60
2022/07/02 07:59:04;;;;;;;3.40;2.53;;;;;;;20.57;52.36;101703.22;5011637;28;20050;-60
2022/07/02 08:01:31;;;;;;;4.90;3.10;;;;;;;20.68;52.29;101702.31;4999685;28;20054;-59
2022/07/02 08:03:59;;;;;;;8.02;2.97;;;;;;;20.72;51.86;101709.13;5011031;28;20068;-59
2022/07/02 08:06:26;;;;;;;3.65;2.55;;;;;;;20.83;51.75;101701.00;4998273;28;20393;-56
2022/07/02 08:08:53;;;;;;;6.47;2.42;;;;;;;21.07;52.72;101694.53;5013390;28;20054;-57
2022/07/02 08:11:20;;;;;;;4.82;2.47;;;;;;;21.21;50.86;101697.72;5017566;28;20732;-57
2022/07/02 08:13:47;;;;;;;5.32;1.83;;;;;;;21.32;49.03;101699.50;5011116;28;20054;-58
2022/07/02 08:16:14;;;;;;;6.97;1.60;;;;;;;21.45;48.26;101701.94;5012575;28;20053;-59
2022/07/02 08:18:41;;;;;;;4.03;1.80;;;;;;;21.44;47.70;101700.25;5006775;28;20061;-60
2022/07/02 08:21:08;;;;;;;3.67;1.42;;;;;;;21.32;47.70;101706.69;5009133;28;20064;-60
2022/07/02 08:23:36;;;;;;;4.22;1.60;;;;;;;21.31;46.81;101704.97;5013990;28;20049;-59
2022/07/02 08:26:03;;;;;;;3.80;1.63;;;;;;;21.21;46.36;101711.13;5015902;28;20410;-59
2022/07/02 08:28:30;;;;;;;3.78;1.35;;;;;;;21.47;44.90;101714.22;5015561;28;20083;-58
2022/07/02 08:30:58;;;;;;;6.78;1.85;;;;;;;21.43;44.28;101712.81;5011160;28;20053;-59
2022/07/02 08:33:26;;;;;;;3.55;1.77;;;;;;;21.52;44.46;101715.63;5012745;28;20061;-59
2022/07/02 08:35:53;;;;;;;2.15;1.20;;;;;;;21.66;43.17;101710.78;5017626;28;20064;-59
2022/07/02 08:38:20;;;;;;;3.92;1.40;;;;;;;22.00;43.70;101722.00;5003363;28;20065;-60
2022/07/02 08:40:48;;;;;;;2.28;1.33;;;;;;;22.30;42.90;101720.25;5021458;28;20144;-59
2022/07/02 08:43:15;;;;;;;4.70;1.25;;;;;;;22.04;42.99;101729.78;5030455;28;20050;-59
2022/07/02 08:45:43;;;;;;;4.10;1.02;;;;;;;22.06;42.85;101725.94;5014339;28;20049;-58
2022/07/02 08:48:12;;;;;;;5.60;1.60;;;;;;;22.28;42.66;101732.94;5012300;28;20049;-58
2022/07/02 08:50:41;;;;;;;4.88;1.50;;;;;;;22.02;43.18;101740.66;5016739;28;20548;-59
2022/07/02 08:53:08;;;;;;;9.05;1.58;;;;;;;22.16;44.02;101720.66;5017643;28;20052;-59
2022/07/02 08:55:36;;;;;;;4.72;1.30;;;;;;;22.57;43.28;101724.91;5017690;28;20521;-58
2022/07/02 08:58:05;;;;;;;2.90;1.20;;;;;;;22.80;41.27;101714.72;5015204;28;20129;-60
2022/07/02 09:00:32;;;;;;;2.95;1.15;;;;;;;22.52;40.52;101727.19;5020213;28;20430;-60
2022/07/02 09:03:00;;;;;;;2.95;1.00;;;;;;;22.46;41.54;101706.25;5008099;28;20046;-59
2022/07/02 09:05:28;;;;;;;5.45;1.30;;;;;;;22.65;40.60;101710.75;5017448;28;20045;-59
2022/07/02 09:07:56;;;;;;;6.05;1.60;;;;;;;22.72;40.51;101709.22;5011243;28;20061;-57
2022/07/02 09:10:24;;;;;;;1.77;0.80;;;;;;;22.87;40.29;101701.56;5000725;28;20060;-59
2022/07/02 09:12:56;;;;;;;4.70;1.20;;;;;;;22.81;40.17;101700.31;5003305;28;20057;-58
2022/07/02 09:15:23;;;;;;;2.90;1.13;;;;;;;22.93;40.12;101711.78;5010932;28;20049;-58
2022/07/02 09:17:51;;;;;;;2.35;1.20;;;;;;;22.90;39.83;101698.63;5007789;28;20062;-58
2022/07/02 09:20:18;;;;;;;6.55;1.65;;;;;;;22.71;41.44;101703.00;5001115;28;20046;-58
2022/07/02 09:22:49;;;;;;;7.63;1.40;;;;;;;22.91;41.06;101701.16;5005066;28;20229;-60
2022/07/02 09:25:25;;;;;;;4.28;1.35;;;;;;;23.20;40.38;101701.09;4999259;28;20065;-58
2022/07/02 09:28:01;;;;;;;6.35;1.65;;;;;;;23.21;38.96;101697.41;5009207;28;20263;-59
2022/07/02 09:30:30;;;;;;;4.22;1.40;;;;;;;23.20;38.91;101684.13;5008480;28;20068;-58
2022/07/02 09:35:42;;;;;;;;;;;;;;;23.30;39.58;101678.72;5009265;28;20072;-59
2022/07/02 09:38:10;;;;;;;5.10;1.70;;;;;;;23.31;40.13;101693.84;5001383;28;19929;-62
2022/07/02 09:40:39;;;;;;;4.65;1.30;;;;;;;23.15;40.75;101681.88;5003701;28;20050;-57
2022/07/02 09:43:06;;;;;;;4.70;1.27;;;;;;;23.09;40.38;101686.97;4969371;28;20049;-59
2022/07/02 09:45:34;;;;;;;4.32;1.48;;;;;;;23.12;40.58;101684.00;4998415;28;20096;-58
2022/07/02 09:48:04;;;;;;;3.67;1.42;;;;;;;23.12;40.44;101682.16;4999093;28;20054;-58
2022/07/02 09:50:37;;;;;;;3.22;1.50;;;;;;;23.18;39.44;101686.94;5004933;28;20514;-58
2022/07/02 09:53:04;;;;;;;6.85;1.95;;;;;;;23.19;39.34;101672.53;4996018;28;20220;-57
2022/07/02 09:55:32;;;;;;;3.90;1.95;;;;;;;23.11;40.08;101677.78;5002486;28;20065;-57
2022/07/02 09:58:00;;;;;;;3.88;1.52;;;;;;;23.39;39.83;101678.66;5012280;28;20061;-59
2022/07/02 10:00:30;;;;;;;5.95;1.48;;;;;;;23.31;37.40;101686.63;5014319;28;20045;-59
2022/07/02 10:02:58;;;;;;;3.35;1.45;;;;;;;23.41;36.96;101675.81;5011527;28;20046;-59
2022/07/02 10:05:31;;;;;;;2.65;1.40;;;;;;;23.26;37.04;101672.78;5006879;28;20054;-58
2022/07/02 10:08:04;;;;;;;3.42;1.20;;;;;;;23.40;36.06;101674.13;5000978;28;20054;-56
2022/07/02 10:10:39;;;;;;;3.53;1.40;;;;;;;23.45;35.29;101683.44;5006197;28;20058;-60
2022/07/02 10:13:11;;;;;;;1.75;0.80;;;;;;;23.43;35.56;101684.59;5010396;28;20083;-61
2022/07/02 10:15:47;;;;;;;5.10;1.73;;;;;;;23.43;36.11;101679.22;5014837;28;20058;-60
2022/07/02 10:18:14;;;;;;;1.55;0.98;;;;;;;23.74;36.83;101685.19;4979682;28;20141;-61
2022/07/02 10:20:41;;;;;;;3.67;1.15;;;;;;;23.86;36.44;101691.19;5008884;28;20057;-60
2022/07/02 10:23:08;;;;;;;2.30;1.15;;;;;;;23.92;36.43;101693.28;4980243;28;20073;-60
2022/07/02 10:25:36;;;;;;;2.25;0.90;;;;;;;23.64;36.88;101678.97;5011769;28;20057;-57
2022/07/02 10:28:03;;;;;;;7.85;1.80;;;;;;;23.82;37.20;101677.22;5011740;28;20053;-59
2022/07/02 10:30:31;;;;;;;4.38;1.33;;;;;;;23.97;37.18;101682.91;5010349;28;20114;-59
2022/07/02 10:33:17;;;;;;;3.10;0.90;;;;;;;24.12;37.32;101675.16;5013344;28;20069;-60
2022/07/02 10:35:49;;;;;;;5.60;1.20;;;;;;;24.14;36.68;101676.69;4989681;28;20753;-58
2022/07/02 10:38:28;;;;;;;3.22;1.10;;;;;;;24.02;36.48;101682.44;4992246;28;20060;-57
2022/07/02 10:40:55;;;;;;;4.38;1.50;;;;;;;23.82;36.34;101670.97;5005684;28;20049;-58
2022/07/02 10:43:22;;;;;;;2.85;1.38;;;;;;;23.53;35.49;101669.25;5009503;28;20054;-59
2022/07/02 10:46:03;;;;;;;4.75;1.02;;;;;;;23.81;35.20;101669.28;5009497;28;20479;-59
2022/07/02 10:48:35;;;;;;;3.58;1.40;;;;;;;24.10;34.38;101672.63;5010529;28;20056;-56
2022/07/02 10:51:02;;;;;;;5.25;1.40;;;;;;;23.94;33.01;101667.06;5005985;28;20060;-57
2022/07/02 10:53:30;;;;;;;2.97;1.10;;;;;;;24.27;33.53;101668.22;5007743;28;20057;-58
2022/07/02 10:55:59;;;;;;;2.38;1.20;;;;;;;24.28;32.40;101677.16;5013187;28;20053;-57
2022/07/02 10:58:28;;;;;;;4.43;1.05;;;;;;;24.62;31.84;101683.53;5008443;28;20481;-59
2022/07/02 11:00:56;;;;;;;3.63;1.23;;;;;;;24.93;31.64;101666.91;4989221;28;20536;-59
2022/07/02 11:03:25;;;;;;;2.20;1.00;;;;;;;25.05;32.26;101667.50;4997769;28;20050;-58
2022/07/02 11:05:57;;;;;;;3.03;1.30;;;;;;;25.04;32.76;101672.03;5004071;28;20152;-58
2022/07/02 11:08:46;;;;;;;3.33;1.10;;;;;;;25.33;31.67;101673.56;4997078;28;20046;-58
2022/07/02 11:11:17;;;;;;;2.60;1.00;;;;;;;25.15;30.62;101658.31;5007876;28;20062;-57
2022/07/02 11:13:55;;;;;;;3.85;1.20;;;;;;;24.96;31.71;101663.91;5000280;28;20038;-58
2022/07/02 11:16:41;;;;;;;3.45;1.00;;;;;;;25.20;32.06;101655.13;5012685;28;20049;-58
2022/07/02 11:19:16;;;;;;;;;;;;;;;25.20;31.97;101653.28;5000557;28;20061;-58
2022/07/02 11:21:45;;;;;;;2.42;1.08;;;;;;;25.10;32.27;101649.88;5010214;28;20482;-58
2022/07/02 11:24:17;;;;;;;2.60;1.30;;;;;;;25.17;32.30;101664.41;5006562;28;20054;-57
2022/07/02 11:26:45;;;;;;;1.98;0.95;;;;;;;24.99;31.79;101650.97;4978741;28;20690;-58